Time;durP1;ratioP1;P1;durP2;ratioP2;P2;SDS_P1;SDS_P2;PMS_P1;PMS_P2;Temp;Humidity;BMP_temperature;BMP_pressure;BME280_temperature;BME280_humidity;BME280_pressure;Samples;Min_cycle;Max_cycle;Signal;HPM_P1;HPM_P2
2023/01/27 00:00:37;;;;;;;44.40;23.92;;;-1.30;99.90;;;;;;5057884;28;20033;-84
2023/01/27 00:03:02;;;;;;;44.20;24.17;;;-1.30;99.90;;;;;;5057725;28;20062;-83
2023/01/27 00:05:28;;;;;;;47.90;25.13;;;-1.40;99.90;;;;;;5075711;28;20113;-83
2023/01/27 00:07:57;;;;;;;52.17;26.45;;;-1.40;99.90;;;;;;5075671;28;20031;-83
2023/01/27 00:10:22;;;;;;;49.15;25.80;;;-1.40;99.90;;;;;;5057743;28;20131;-83
2023/01/27 00:15:33;;;;;;;40.08;21.42;;;-1.40;99.90;;;;;;5075437;28;20105;-83
2023/01/27 00:17:59;;;;;;;45.95;23.80;;;-1.40;99.90;;;;;;5057283;28;20028;-83
2023/01/27 00:26:08;;;;;;;50.67;24.50;;;-1.50;99.90;;;;;;5095776;28;20509;-85
2023/01/27 00:28:34;;;;;;;54.40;25.50;;;-1.50;99.90;;;;;;5077615;28;20020;-83
2023/01/27 00:31:01;;;;;;;55.33;27.30;;;-1.50;99.90;;;;;;5077190;28;20023;-84
2023/01/27 00:33:27;;;;;;;58.92;27.17;;;-1.50;99.90;;;;;;5095148;28;20057;-85
2023/01/27 00:36:03;;;;;;;49.60;25.88;;;-1.50;99.90;;;;;;5077096;28;20016;-85
2023/01/27 00:38:31;;;;;;;47.72;26.52;;;-1.60;99.90;;;;;;5095193;28;20023;-85
2023/01/27 00:43:41;;;;;;;60.13;28.02;;;-1.60;99.90;;;;;;5095299;28;20043;-82
2023/01/27 00:46:07;;;;;;;48.72;28.40;;;-1.60;99.90;;;;;;5095042;28;20024;-82
2023/01/27 00:48:33;;;;;;;53.50;28.13;;;-1.60;99.90;;;;;;5094952;28;20028;-82
2023/01/27 00:50:59;;;;;;;53.75;27.27;;;-1.60;99.90;;;;;;5095098;28;20024;-86
2023/01/27 00:53:25;;;;;;;55.38;27.13;;;-1.60;99.90;;;;;;5076749;28;20165;-87
2023/01/27 00:55:50;;;;;;;50.05;26.15;;;-1.60;99.90;;;;;;5095032;28;20028;-86
2023/01/27 00:58:16;;;;;;;55.70;28.65;;;-1.60;99.90;;;;;;5076613;28;20081;-86
2023/01/27 01:00:42;;;;;;;50.08;25.95;;;-1.60;99.90;;;;;;5094848;28;20394;-86
2023/01/27 01:03:07;;;;;;;54.22;27.30;;;-1.60;99.90;;;;;;5094746;28;20028;-81
2023/01/27 01:05:33;;;;;;;57.40;25.70;;;-1.60;99.90;;;;;;5094654;28;20069;-86
2023/01/27 01:07:58;;;;;;;52.58;27.58;;;-1.60;99.90;;;;;;5076450;28;20498;-85
2023/01/27 01:10:24;;;;;;;48.63;26.20;;;-1.60;99.90;;;;;;5094620;28;20100;-82
2023/01/27 01:12:50;;;;;;;50.58;26.13;;;-1.60;99.90;;;;;;5076345;28;20028;-82
2023/01/27 01:15:15;;;;;;;50.63;25.00;;;-1.60;99.90;;;;;;5076364;28;20424;-87
2023/01/27 01:17:41;;;;;;;52.28;26.33;;;-1.60;99.90;;;;;;5094590;28;20545;-83
2023/01/27 01:20:07;;;;;;;56.60;27.30;;;-1.60;99.90;;;;;;5077328;28;20131;-83
2023/01/27 01:22:33;;;;;;;54.00;27.13;;;-1.60;99.90;;;;;;5073987;28;20029;-83
2023/01/27 01:24:59;;;;;;;53.88;25.80;;;-1.60;99.90;;;;;;5073809;28;20074;-83
2023/01/27 01:27:25;;;;;;;55.17;24.77;;;-1.60;99.90;;;;;;5072213;28;20028;-84
2023/01/27 01:29:50;;;;;;;53.20;24.45;;;-1.60;99.90;;;;;;5073892;28;20384;-83
2023/01/27 01:32:16;;;;;;;51.30;23.80;;;-1.60;99.90;;;;;;5072660;28;20019;-83
2023/01/27 01:34:42;;;;;;;60.63;24.98;;;-1.60;99.90;;;;;;5073960;28;20028;-82
2023/01/27 01:37:08;;;;;;;53.80;25.40;;;-1.60;99.90;;;;;;5074062;28;20032;-82
2023/01/27 01:39:33;;;;;;;55.97;26.00;;;-1.60;99.90;;;;;;5073307;28;20090;-87
2023/01/27 01:41:59;;;;;;;58.10;25.92;;;-1.60;99.90;;;;;;5072065;28;20119;-84
2023/01/27 01:44:27;;;;;;;59.10;26.35;;;-1.60;99.90;;;;;;5073512;28;20031;-86
2023/01/27 01:46:53;;;;;;;54.15;24.35;;;-1.60;99.90;;;;;;5072523;28;20458;-84
2023/01/27 01:49:25;;;;;;;66.32;27.05;;;-1.70;99.90;;;;;;5072711;28;20095;-84
2023/01/27 01:51:56;;;;;;;56.28;25.30;;;-1.70;99.90;;;;;;5073696;28;20122;-83
2023/01/27 01:54:31;;;;;;;58.25;23.95;;;-1.70;99.90;;;;;;5072675;28;20025;-88
2023/01/27 01:57:06;;;;;;;54.40;24.13;;;-1.70;99.90;;;;;;5072549;28;20418;-84
2023/01/27 01:59:37;;;;;;;44.50;21.83;;;-1.80;99.90;;;;;;5072202;28;20036;-87
2023/01/27 02:02:08;;;;;;;46.35;21.55;;;-1.80;99.90;;;;;;5072706;28;20036;-84
2023/01/27 02:04:40;;;;;;;33.90;18.05;;;-1.80;99.90;;;;;;5072595;28;20438;-84
2023/01/27 02:07:07;;;;;;;36.33;17.73;;;-1.80;99.90;;;;;;5072284;28;20060;-88
2023/01/27 02:09:33;;;;;;;35.00;18.42;;;-1.80;99.90;;;;;;5072025;28;20025;-88
2023/01/27 02:11:59;;;;;;;36.08;16.92;;;-1.80;99.90;;;;;;5073239;28;20036;-87
2023/01/27 02:14:25;;;;;;;39.80;18.67;;;-1.80;99.90;;;;;;5072011;28;20016;-84
2023/01/27 02:16:51;;;;;;;36.50;17.58;;;-1.80;99.90;;;;;;5072190;28;20025;-87
2023/01/27 02:19:31;;;;;;;34.20;16.95;;;-1.80;99.90;;;;;;5072026;28;20087;-85
2023/01/27 02:21:59;;;;;;;31.30;18.00;;;-1.80;99.90;;;;;;5072309;28;20035;-86
2023/01/27 02:24:33;;;;;;;36.85;18.33;;;-1.80;99.90;;;;;;5073100;28;20021;-86
2023/01/27 02:26:59;;;;;;;38.72;19.90;;;-1.80;99.90;;;;;;5073460;28;20024;-85
2023/01/27 02:29:24;;;;;;;36.65;18.40;;;-1.80;99.90;;;;;;5073408;28;20155;-87
2023/01/27 02:31:50;;;;;;;45.10;18.52;;;-1.80;99.90;;;;;;5068117;28;20013;-87
2023/01/27 02:34:22;;;;;;;42.08;19.35;;;-1.80;99.90;;;;;;5051677;28;20017;-87
2023/01/27 02:36:53;;;;;;;37.03;17.15;;;-1.90;99.90;;;;;;5053854;28;20382;-84
2023/01/27 02:39:22;;;;;;;37.00;18.27;;;-1.90;99.90;;;;;;5056284;28;20029;-84
2023/01/27 02:41:56;;;;;;;35.40;18.25;;;-1.90;99.90;;;;;;5057189;28;20033;-85
2023/01/27 02:44:22;;;;;;;38.80;17.27;;;-1.90;99.90;;;;;;5057157;28;20028;-84
2023/01/27 02:46:47;;;;;;;31.75;16.52;;;-1.90;99.90;;;;;;5055716;28;20483;-86
2023/01/27 02:49:13;;;;;;;28.75;15.82;;;-1.90;99.90;;;;;;5056028;28;20033;-86
2023/01/27 02:51:39;;;;;;;34.13;17.02;;;-1.90;99.90;;;;;;5056890;28;20033;-86
2023/01/27 02:54:05;;;;;;;30.58;15.57;;;-2.00;99.90;;;;;;5055906;28;20029;-86
2023/01/27 02:56:30;;;;;;;33.67;15.00;;;-2.00;99.90;;;;;;5056844;28;20101;-86
2023/01/27 02:58:56;;;;;;;30.77;15.80;;;-2.00;99.90;;;;;;5055550;28;20475;-84
2023/01/27 03:01:23;;;;;;;34.53;17.50;;;-2.00;99.90;;;;;;5055590;28;20490;-84
2023/01/27 03:03:50;;;;;;;33.67;17.85;;;-2.00;99.90;;;;;;5056648;28;20044;-86
2023/01/27 03:06:16;;;;;;;28.52;16.38;;;-2.00;99.90;;;;;;5055480;28;20023;-83
2023/01/27 03:08:42;;;;;;;34.85;16.80;;;-2.00;99.90;;;;;;5056721;28;20041;-83
2023/01/27 03:11:09;;;;;;;31.48;16.92;;;-2.00;99.90;;;;;;5056670;28;20024;-84
2023/01/27 03:13:38;;;;;;;36.90;16.75;;;-2.00;99.90;;;;;;5055322;28;20029;-84
2023/01/27 03:18:50;;;;;;;31.13;16.13;;;-2.00;99.90;;;;;;5076468;28;20114;-83
2023/01/27 03:21:17;;;;;;;32.33;15.98;;;-2.10;99.90;;;;;;5076366;28;20013;-83
2023/01/27 03:23:44;;;;;;;31.23;16.02;;;-2.00;99.90;;;;;;5075076;28;20032;-82
2023/01/27 03:26:11;;;;;;;30.30;15.57;;;-2.10;99.90;;;;;;5076379;28;20047;-83
2023/01/27 03:28:37;;;;;;;30.15;16.35;;;-2.00;99.90;;;;;;5076352;28;20470;-82
2023/01/27 03:31:06;;;;;;;34.00;16.75;;;-2.10;99.90;;;;;;5075031;28;20031;-82
2023/01/27 03:33:32;;;;;;;31.00;15.38;;;-2.10;99.90;;;;;;5076110;28;20474;-82
2023/01/27 03:46:57;;;;;;;29.00;14.50;;;-2.20;99.90;;;;;;5076176;28;20036;-83
2023/01/27 03:49:23;;;;;;;30.33;15.55;;;-2.20;99.90;;;;;;5073840;28;20025;-85
2023/01/27 03:51:49;;;;;;;31.65;16.38;;;-2.20;99.90;;;;;;5074522;28;20103;-84
2023/01/27 03:54:15;;;;;;;28.15;15.32;;;-2.20;99.90;;;;;;5075772;28;20028;-85
2023/01/27 03:56:40;;;;;;;32.15;14.95;;;-2.20;99.90;;;;;;5074589;28;20166;-85
2023/01/27 03:59:06;;;;;;;33.53;16.48;;;-2.30;99.90;;;;;;5076041;28;20021;-86
2023/01/27 04:01:31;;;;;;;30.10;14.43;;;-2.30;99.90;;;;;;5074757;28;20052;-85
2023/01/27 04:06:50;;;;;;;29.38;15.15;;;-2.30;99.90;;;;;;5075585;28;20402;-87
2023/01/27 04:09:25;;;;;;;27.00;14.63;;;-2.30;99.90;;;;;;5074470;28;20016;-86
2023/01/27 04:11:54;;;;;;;26.52;14.20;;;-2.30;99.90;;;;;;5073985;28;20032;-84
2023/01/27 04:14:25;;;;;;;26.83;13.35;;;-2.30;99.90;;;;;;5075677;28;20030;-84
2023/01/27 04:16:52;;;;;;;32.67;15.88;;;-2.20;99.90;;;;;;5074109;28;20025;-87
2023/01/27 04:19:18;;;;;;;31.42;14.52;;;-2.30;99.90;;;;;;5077374;28;20047;-87
2023/01/27 04:21:46;;;;;;;28.55;16.02;;;-2.30;99.90;;;;;;5077683;28;20570;-84
2023/01/27 04:24:15;;;;;;;29.02;15.02;;;-2.30;99.90;;;;;;5077269;28;20073;-83
2023/01/27 04:26:42;;;;;;;32.10;15.95;;;-2.30;99.90;;;;;;5095318;28;20013;-84
2023/01/27 04:29:09;;;;;;;32.85;15.07;;;-2.30;99.90;;;;;;5095335;28;20024;-87
2023/01/27 04:31:34;;;;;;;32.05;17.85;;;-2.30;99.90;;;;;;5077487;28;20020;-86
2023/01/27 04:34:00;;;;;;;29.85;14.35;;;-2.30;99.90;;;;;;5093921;28;20511;-86
2023/01/27 04:36:25;;;;;;;31.23;15.25;;;-2.30;99.90;;;;;;5095298;28;20070;-84
2023/01/27 04:38:51;;;;;;;24.25;13.90;;;-2.30;99.90;;;;;;5077086;28;20024;-85
2023/01/27 04:41:17;;;;;;;29.65;14.95;;;-2.30;99.90;;;;;;5095180;28;20028;-86
2023/01/27 04:43:42;;;;;;;30.27;15.18;;;-2.30;99.90;;;;;;5077061;28;20470;-84
2023/01/27 04:46:08;;;;;;;25.65;14.35;;;-2.40;99.90;;;;;;5095322;28;20031;-81
2023/01/27 04:48:34;;;;;;;33.72;16.20;;;-2.30;99.90;;;;;;5094964;28;20055;-83
2023/01/27 04:50:59;;;;;;;33.40;16.52;;;-2.30;99.90;;;;;;5076810;28;20047;-81
2023/01/27 04:53:25;;;;;;;29.20;13.60;;;-2.40;99.90;;;;;;5076699;28;20035;-81
2023/01/27 04:55:50;;;;;;;32.13;15.93;;;-2.40;99.90;;;;;;5094847;28;20035;-82
2023/01/27 04:58:19;;;;;;;27.30;14.95;;;-2.50;99.90;;;;;;5094870;28;20028;-83
2023/01/27 05:00:44;;;;;;;30.52;16.00;;;-2.50;99.90;;;;;;5075581;28;20450;-84
2023/01/27 05:03:11;;;;;;;33.65;17.05;;;-2.40;99.90;;;;;;5076332;28;20118;-84
2023/01/27 05:05:37;;;;;;;28.70;15.57;;;-2.40;99.90;;;;;;5076548;28;20110;-86
2023/01/27 05:08:08;;;;;;;37.00;17.60;;;-2.40;99.90;;;;;;5094535;28;20492;-85
2023/01/27 05:10:34;;;;;;;31.48;17.05;;;-2.40;99.90;;;;;;5094937;28;20024;-85
2023/01/27 05:13:01;;;;;;;35.05;17.88;;;-2.40;99.90;;;;;;5075896;28;20030;-85
2023/01/27 05:15:27;;;;;;;39.08;18.35;;;-2.40;99.90;;;;;;5076278;28;20096;-85
2023/01/27 05:17:53;;;;;;;33.25;18.50;;;-2.40;99.90;;;;;;5094365;28;20043;-82
2023/01/27 05:20:18;;;;;;;32.13;16.83;;;-2.40;99.90;;;;;;5094539;28;20044;-83
2023/01/27 05:22:44;;;;;;;32.40;15.90;;;-2.40;99.90;;;;;;5094274;28;20527;-87
2023/01/27 05:25:09;;;;;;;38.58;18.00;;;-2.40;99.90;;;;;;5094727;28;20076;-83
2023/01/27 05:27:35;;;;;;;37.88;17.90;;;-2.40;99.90;;;;;;5076598;28;20462;-88
2023/01/27 05:30:01;;;;;;;38.65;18.67;;;-2.40;99.90;;;;;;5076274;28;20027;-87
2023/01/27 05:32:27;;;;;;;36.35;17.15;;;-2.40;99.90;;;;;;5075907;28;20386;-87
2023/01/27 05:34:52;;;;;;;41.40;19.63;;;-2.40;99.90;;;;;;5094062;28;20024;-88
2023/01/27 05:37:20;;;;;;;35.13;18.33;;;-2.40;99.90;;;;;;5094004;28;20157;-88
2023/01/27 05:39:45;;;;;;;32.40;18.80;;;-2.40;99.90;;;;;;5075747;28;20020;-87
2023/01/27 05:42:11;;;;;;;32.17;16.88;;;-2.40;99.90;;;;;;5094064;28;20060;-86
2023/01/27 05:44:36;;;;;;;35.22;16.77;;;-2.40;99.90;;;;;;5075689;28;20052;-88
2023/01/27 05:47:02;;;;;;;39.15;19.77;;;-2.40;99.90;;;;;;5075781;28;20023;-87
2023/01/27 05:49:28;;;;;;;35.88;18.50;;;-2.40;99.90;;;;;;5093661;28;20028;-83
2023/01/27 05:51:53;;;;;;;42.13;21.10;;;-2.30;99.90;;;;;;5094192;28;20047;-83
2023/01/27 05:54:19;;;;;;;40.97;20.17;;;-2.30;99.90;;;;;;5075549;28;20069;-87
2023/01/27 05:56:44;;;;;;;37.17;18.77;;;-2.30;99.90;;;;;;5075928;28;20061;-83
2023/01/27 05:59:10;;;;;;;43.95;19.27;;;-2.30;99.90;;;;;;5093544;28;20024;-87
2023/01/27 06:01:36;;;;;;;34.45;19.35;;;-2.30;99.90;;;;;;5075553;28;20061;-88
2023/01/27 06:04:03;;;;;;;41.72;19.67;;;-2.40;99.90;;;;;;5093460;28;20059;-83
2023/01/27 06:06:30;;;;;;;48.00;21.63;;;-2.40;99.90;;;;;;5075744;28;20020;-86
2023/01/27 06:08:56;;;;;;;47.97;25.42;;;-2.40;99.90;;;;;;5093571;28;20055;-82
2023/01/27 06:11:23;;;;;;;38.15;20.77;;;-2.50;99.90;;;;;;5093280;28;20027;-84
2023/01/27 06:13:50;;;;;;;45.30;24.25;;;-2.50;99.90;;;;;;5068259;28;20104;-84
2023/01/27 06:16:18;;;;;;;41.92;20.50;;;-2.40;99.90;;;;;;5053905;28;20481;-84
2023/01/27 06:18:44;;;;;;;39.05;20.25;;;-2.40;99.90;;;;;;5066792;28;20233;-84
2023/01/27 06:21:11;;;;;;;45.38;21.00;;;-2.30;99.90;;;;;;5054777;28;20401;-84
2023/01/27 06:23:38;;;;;;;43.97;21.58;;;-2.30;99.90;;;;;;5054674;28;20044;-84
2023/01/27 06:26:10;;;;;;;44.72;20.75;;;-2.30;99.90;;;;;;5090514;28;20023;-84
2023/01/27 06:28:39;;;;;;;44.87;22.70;;;-2.30;99.90;;;;;;5074140;28;20028;-84
2023/01/27 06:31:16;;;;;;;45.47;21.30;;;-2.30;99.90;;;;;;5066415;28;20025;-84
2023/01/27 06:33:43;;;;;;;49.95;23.38;;;-2.30;99.90;;;;;;5052681;28;20051;-85
2023/01/27 06:36:11;;;;;;;43.78;22.13;;;-2.30;99.90;;;;;;5053434;28;20449;-84
2023/01/27 06:38:37;;;;;;;45.30;22.63;;;-2.30;99.90;;;;;;5052583;28;20125;-84
2023/01/27 06:41:03;;;;;;;43.78;22.38;;;-2.20;99.90;;;;;;5053043;28;20489;-85
2023/01/27 06:43:29;;;;;;;42.90;21.40;;;-2.20;99.90;;;;;;5070490;28;20032;-85
2023/01/27 06:45:58;;;;;;;43.38;22.95;;;-2.20;99.90;;;;;;5052582;28;20094;-84
2023/01/27 06:48:25;;;;;;;49.65;23.17;;;-2.20;99.90;;;;;;5069013;28;20028;-84
2023/01/27 06:50:52;;;;;;;45.00;21.10;;;-2.20;99.90;;;;;;5050233;28;20478;-84
2023/01/27 06:53:18;;;;;;;43.53;20.33;;;-2.10;99.90;;;;;;5050947;28;20033;-84
2023/01/27 06:55:44;;;;;;;43.72;21.88;;;-2.20;99.90;;;;;;5090229;28;20377;-84
2023/01/27 06:58:11;;;;;;;46.80;22.50;;;-2.20;99.90;;;;;;5092566;28;20035;-84
2023/01/27 07:00:38;;;;;;;37.53;19.80;;;-2.20;99.90;;;;;;5092685;28;20020;-84
2023/01/27 07:03:04;;;;;;;43.28;20.42;;;-2.20;99.90;;;;;;5111767;28;20038;-84
2023/01/27 07:05:30;;;;;;;41.53;21.10;;;-2.20;99.90;;;;;;5094696;28;20016;-84
2023/01/27 07:07:55;;;;;;;44.78;21.23;;;-2.20;99.90;;;;;;5107499;28;20106;-85
2023/01/27 07:10:21;;;;;;;51.53;21.65;;;-2.20;99.90;;;;;;5094062;28;20106;-84
2023/01/27 07:12:47;;;;;;;39.10;20.58;;;-2.20;99.90;;;;;;5094400;28;20028;-83
2023/01/27 07:15:12;;;;;;;39.33;20.83;;;-2.10;99.90;;;;;;5111453;28;20035;-84
2023/01/27 07:17:38;;;;;;;40.65;21.58;;;-2.10;99.90;;;;;;5110745;28;20019;-84
2023/01/27 07:20:06;;;;;;;40.95;20.50;;;-2.10;99.90;;;;;;5092425;28;20040;-84
2023/01/27 07:22:32;;;;;;;46.95;20.80;;;-2.10;99.90;;;;;;5110738;28;20519;-84
2023/01/27 07:24:58;;;;;;;47.20;22.17;;;-2.10;99.90;;;;;;5078430;28;20060;-84
2023/01/27 07:27:24;;;;;;;42.45;19.67;;;-2.10;99.90;;;;;;5094645;28;20047;-83
2023/01/27 07:29:50;;;;;;;41.95;22.25;;;-2.20;99.90;;;;;;5094244;28;20024;-84
2023/01/27 07:32:16;;;;;;;40.22;19.77;;;-2.20;99.90;;;;;;5075885;28;20032;-84
2023/01/27 07:34:41;;;;;;;40.25;22.10;;;-2.10;99.90;;;;;;5076812;28;20054;-84
2023/01/27 07:37:07;;;;;;;47.90;21.15;;;-2.20;99.90;;;;;;5078069;28;20081;-84
2023/01/27 07:39:33;;;;;;;49.10;23.13;;;-2.10;99.90;;;;;;5077864;28;20012;-84
2023/01/27 07:42:01;;;;;;;43.58;22.00;;;-2.20;99.90;;;;;;5084721;28;20024;-83
2023/01/27 07:44:27;;;;;;;39.80;20.85;;;-2.10;99.90;;;;;;5095036;28;20063;-84
2023/01/27 07:46:53;;;;;;;40.90;22.63;;;-2.10;99.90;;;;;;5086469;28;20052;-84
2023/01/27 07:49:19;;;;;;;42.45;20.95;;;-2.10;99.90;;;;;;5095967;28;20485;-83
2023/01/27 07:51:45;;;;;;;42.90;21.40;;;-2.10;99.90;;;;;;5075682;28;20024;-84
2023/01/27 07:54:11;;;;;;;45.95;22.70;;;-2.10;99.90;;;;;;5075466;28;20028;-83
2023/01/27 07:56:36;;;;;;;46.13;22.83;;;-2.10;99.90;;;;;;5077760;28;20043;-84
2023/01/27 07:59:03;;;;;;;48.03;24.13;;;-2.10;99.90;;;;;;5078098;28;20020;-84
2023/01/27 08:01:28;;;;;;;44.25;22.48;;;-2.10;99.90;;;;;;5077959;28;20465;-83
2023/01/27 08:03:54;;;;;;;50.50;25.75;;;-2.10;99.90;;;;;;5094564;28;20107;-83
2023/01/27 08:06:19;;;;;;;54.88;25.73;;;-2.10;99.90;;;;;;5093204;28;20034;-83
2023/01/27 08:08:45;;;;;;;50.35;22.98;;;-2.10;99.90;;;;;;5092046;28;20048;-83
2023/01/27 08:11:14;;;;;;;52.28;26.05;;;-2.10;99.90;;;;;;5090943;28;20043;-84
2023/01/27 08:13:40;;;;;;;52.78;23.60;;;-2.10;99.90;;;;;;5072719;28;20032;-84
2023/01/27 08:16:10;;;;;;;46.05;22.20;;;-2.10;99.90;;;;;;5072911;28;20013;-83
2023/01/27 08:18:36;;;;;;;51.85;25.42;;;-2.10;99.90;;;;;;5073340;28;20436;-84
2023/01/27 08:21:04;;;;;;;58.03;27.80;;;-2.10;99.90;;;;;;5093406;28;20024;-83
2023/01/27 08:23:30;;;;;;;56.22;24.15;;;-2.10;99.90;;;;;;5076739;28;20020;-83
2023/01/27 08:25:58;;;;;;;43.90;22.35;;;-2.00;99.90;;;;;;5095606;28;20115;-84
2023/01/27 08:28:25;;;;;;;52.58;23.85;;;-2.00;99.90;;;;;;5077582;28;20024;-83
2023/01/27 08:30:52;;;;;;;49.55;23.13;;;-2.00;99.90;;;;;;5077358;28;20390;-83
2023/01/27 08:33:22;;;;;;;54.88;23.65;;;-2.00;99.90;;;;;;5094177;28;20527;-84
2023/01/27 08:35:49;;;;;;;44.20;22.90;;;-2.00;99.90;;;;;;5093942;28;20036;-83
2023/01/27 08:38:17;;;;;;;47.83;23.42;;;-1.90;99.90;;;;;;5094176;28;20016;-83
2023/01/27 08:40:43;;;;;;;49.47;23.90;;;-2.00;99.90;;;;;;5095447;28;20375;-83
2023/01/27 08:43:09;;;;;;;46.35;22.63;;;-1.90;99.90;;;;;;5093979;28;20032;-84
2023/01/27 08:45:35;;;;;;;45.72;22.15;;;-1.90;99.90;;;;;;5095721;28;20028;-84
2023/01/27 08:48:02;;;;;;;42.08;21.00;;;-1.80;99.90;;;;;;5094153;28;20382;-83
2023/01/27 08:50:29;;;;;;;44.05;22.73;;;-1.80;99.90;;;;;;5093877;28;20021;-84
2023/01/27 08:52:57;;;;;;;45.00;22.17;;;-1.70;99.90;;;;;;5095381;28;20024;-83
2023/01/27 08:55:28;;;;;;;39.00;19.23;;;-1.60;99.90;;;;;;5093857;28;20057;-84
2023/01/27 08:57:54;;;;;;;42.35;19.15;;;-1.60;99.90;;;;;;5095060;28;20020;-84
2023/01/27 09:00:20;;;;;;;39.47;20.48;;;-1.50;99.90;;;;;;5095052;28;20020;-84
2023/01/27 09:02:46;;;;;;;40.08;19.77;;;-1.50;99.90;;;;;;5093547;28;20024;-84
2023/01/27 09:05:12;;;;;;;44.13;20.38;;;-1.50;99.90;;;;;;5093774;28;20020;-84
2023/01/27 09:07:37;;;;;;;45.95;21.52;;;-1.50;99.90;;;;;;5093542;28;20020;-84
2023/01/27 09:10:05;;;;;;;40.28;21.02;;;-1.50;99.90;;;;;;5093611;28;20020;-84
2023/01/27 09:12:30;;;;;;;43.75;21.42;;;-1.60;99.90;;;;;;5093616;28;20028;-84
2023/01/27 09:14:57;;;;;;;39.88;20.17;;;-1.60;99.90;;;;;;5093540;28;20385;-84
2023/01/27 09:17:23;;;;;;;45.05;23.48;;;-1.60;99.90;;;;;;5094788;28;20473;-84
2023/01/27 09:19:49;;;;;;;47.45;22.38;;;-1.50;99.90;;;;;;5094723;28;20047;-84
2023/01/27 09:22:14;;;;;;;48.40;21.20;;;-1.50;99.90;;;;;;5093250;28;20035;-84
2023/01/27 09:24:40;;;;;;;46.28;23.52;;;-1.40;99.90;;;;;;5093308;28;20591;-84
2023/01/27 09:27:06;;;;;;;41.50;20.65;;;-1.40;99.90;;;;;;5093674;28;20024;-84
2023/01/27 09:29:31;;;;;;;40.75;20.02;;;-1.50;99.90;;;;;;5093176;28;20111;-84
2023/01/27 09:31:57;;;;;;;39.13;20.05;;;-1.50;99.90;;;;;;5094378;28;20024;-84
2023/01/27 09:34:22;;;;;;;38.60;17.90;;;-1.50;99.90;;;;;;5094441;28;20024;-84
2023/01/27 09:36:53;;;;;;;39.20;22.48;;;-1.50;99.90;;;;;;5092943;28;20064;-84
2023/01/27 09:39:20;;;;;;;34.88;18.30;;;-1.50;99.90;;;;;;5092997;28;20024;-84
2023/01/27 09:42:07;;;;;;;36.67;18.20;;;-1.50;99.90;;;;;;5092859;28;20016;-84
2023/01/27 09:44:59;;;;;;;37.08;18.35;;;-1.50;99.90;;;;;;5094239;28;20032;-84
2023/01/27 09:47:58;;;;;;;36.95;20.08;;;-1.40;99.90;;;;;;5093735;28;20035;-84
2023/01/27 09:50:39;;;;;;;36.85;17.48;;;-1.40;99.90;;;;;;5092795;28;20031;-84
2023/01/27 09:53:29;;;;;;;35.30;17.30;;;-1.30;99.90;;;;;;5092869;28;20066;-84
2023/01/27 09:56:07;;;;;;;34.10;18.52;;;-1.40;99.90;;;;;;5094139;28;20366;-84
2023/01/27 09:58:35;;;;;;;41.42;18.52;;;-1.30;99.90;;;;;;5092632;28;20104;-84
2023/01/27 10:01:32;;;;;;;37.20;17.98;;;-1.30;99.90;;;;;;5093961;28;20024;-84
2023/01/27 10:04:27;;;;;;;38.58;19.05;;;-1.30;99.90;;;;;;5092922;28;20119;-84
2023/01/27 10:07:12;;;;;;;35.97;17.80;;;-1.40;99.90;;;;;;5090599;28;20056;-84
2023/01/27 10:10:04;;;;;;;34.47;16.42;;;-1.40;99.90;;;;;;5092783;28;20028;-84
2023/01/27 10:12:59;;;;;;;33.30;16.23;;;-1.30;99.90;;;;;;5068426;28;20475;-83
2023/01/27 10:15:40;;;;;;;29.48;15.75;;;-1.40;99.90;;;;;;5093004;28;20020;-84
2023/01/27 10:18:51;;;;;;;34.53;17.67;;;-1.40;99.90;;;;;;5093661;28;20032;-83
2023/01/27 10:21:16;;;;;;;36.35;18.73;;;-1.40;99.90;;;;;;5089094;28;20036;-84
2023/01/27 10:24:04;;;;;;;34.30;17.42;;;-1.40;99.90;;;;;;5092315;28;20089;-84
2023/01/27 10:26:48;;;;;;;34.78;19.05;;;-1.40;99.90;;;;;;5093984;28;20020;-84
2023/01/27 10:29:21;;;;;;;45.45;20.23;;;-1.30;99.90;;;;;;5093711;28;20052;-84
2023/01/27 10:32:13;;;;;;;38.88;19.23;;;-1.30;99.90;;;;;;5093673;28;20016;-84
2023/01/27 10:34:56;;;;;;;45.28;21.65;;;-1.30;99.90;;;;;;5093164;28;20036;-84
2023/01/27 10:37:34;;;;;;;42.30;20.92;;;-1.20;99.90;;;;;;5092066;28;20024;-84
2023/01/27 10:40:24;;;;;;;39.45;20.40;;;-1.10;99.90;;;;;;5093438;28;20020;-84
2023/01/27 10:43:17;;;;;;;39.50;18.55;;;-1.20;99.90;;;;;;5092138;28;20040;-84
2023/01/27 10:46:00;;;;;;;32.90;18.35;;;-1.20;99.90;;;;;;5088811;28;20035;-85
2023/01/27 10:48:42;;;;;;;29.65;14.63;;;-1.10;99.90;;;;;;5092176;28;20439;-84
2023/01/27 10:51:10;;;;;;;42.33;20.00;;;-1.20;99.90;;;;;;5093743;28;20035;-84
2023/01/27 10:53:58;;;;;;;42.40;19.63;;;-1.10;99.90;;;;;;5093335;28;20095;-84
2023/01/27 10:56:50;;;;;;;41.10;18.55;;;-1.00;99.90;;;;;;5092139;28;20020;-84
2023/01/27 10:59:30;;;;;;;39.20;17.15;;;-0.90;99.90;;;;;;5094197;28;20472;-84
2023/01/27 11:02:13;;;;;;;38.03;18.48;;;-1.00;99.90;;;;;;5095983;28;20027;-84
2023/01/27 11:05:00;;;;;;;34.92;16.35;;;-0.90;99.90;;;;;;5096081;28;20081;-85
2023/01/27 11:07:25;;;;;;;35.25;18.27;;;-1.00;99.90;;;;;;5095977;28;20124;-84
2023/01/27 11:10:02;;;;;;;31.30;16.75;;;-0.90;99.90;;;;;;5097202;28;20103;-85
2023/01/27 11:12:33;;;;;;;45.10;21.42;;;-0.80;99.90;;;;;;5097402;28;20024;-84
2023/01/27 11:15:17;;;;;;;36.70;19.77;;;-0.90;99.90;;;;;;5097085;28;20020;-84
2023/01/27 11:17:49;;;;;;;37.10;18.75;;;-0.90;99.90;;;;;;5076842;28;20074;-83
2023/01/27 11:20:25;;;;;;;43.03;19.98;;;-0.90;99.90;;;;;;5058867;28;20088;-84
2023/01/27 11:22:59;;;;;;;37.65;17.92;;;-0.80;99.90;;;;;;5055314;28;20041;-84
2023/01/27 11:25:45;;;;;;;37.28;19.30;;;-0.80;99.90;;;;;;5056721;28;20032;-84
2023/01/27 11:28:19;;;;;;;40.15;17.80;;;-0.80;99.90;;;;;;5056629;28;20052;-84
2023/01/27 11:30:51;;;;;;;40.88;20.20;;;-0.80;99.90;;;;;;5055231;28;20079;-84
2023/01/27 11:33:17;;;;;;;34.40;16.30;;;-0.90;98.80;;;;;;5056492;28;20051;-84
2023/01/27 11:35:43;;;;;;;33.38;17.80;;;-1.00;97.80;;;;;;5055098;28;20116;-85
2023/01/27 11:38:15;;;;;;;36.92;18.42;;;-1.10;98.00;;;;;;5056332;28;20029;-84
2023/01/27 11:40:42;;;;;;;38.03;18.50;;;-1.00;99.10;;;;;;5056455;28;20025;-84
2023/01/27 11:43:14;;;;;;;29.80;14.07;;;-0.90;98.60;;;;;;5054810;28;20035;-85
2023/01/27 11:45:40;;;;;;;31.77;17.33;;;-1.00;95.00;;;;;;5055042;28;20025;-84
2023/01/27 11:48:13;;;;;;;30.05;16.58;;;-1.10;95.20;;;;;;5056149;28;20017;-84
2023/01/27 11:50:40;;;;;;;28.92;14.68;;;-1.10;96.70;;;;;;5055003;28;20031;-84
2023/01/27 11:53:15;;;;;;;34.28;16.80;;;-1.10;94.70;;;;;;5054925;28;20021;-84
2023/01/27 11:55:46;;;;;;;38.85;17.15;;;-1.00;97.20;;;;;;5056039;28;20025;-84
2023/01/27 11:58:19;;;;;;;35.92;16.73;;;-0.90;98.00;;;;;;5054828;28;20053;-84
2023/01/27 12:00:58;;;;;;;30.40;14.93;;;-0.90;96.40;;;;;;5056023;28;20036;-84
2023/01/27 12:03:57;;;;;;;29.33;15.75;;;-0.90;96.40;;;;;;5054382;28;20052;-84
2023/01/27 12:06:53;;;;;;;33.17;14.25;;;-0.90;96.30;;;;;;5039899;28;20082;-84
2023/01/27 12:09:40;;;;;;;28.58;15.55;;;-0.90;96.80;;;;;;5055534;28;20063;-84
2023/01/27 12:12:26;;;;;;;31.90;16.80;;;-0.90;97.00;;;;;;5055926;28;20021;-84
2023/01/27 12:14:58;;;;;;;38.60;18.35;;;-0.90;97.30;;;;;;5055470;28;20047;-84
2023/01/27 12:17:46;;;;;;;37.80;17.83;;;-0.90;98.90;;;;;;5054455;28;20025;-84
2023/01/27 12:20:20;;;;;;;36.55;18.70;;;-0.90;99.60;;;;;;5055593;28;20051;-84
2023/01/27 12:22:51;;;;;;;37.33;18.70;;;-0.80;99.90;;;;;;5054036;28;20099;-84
2023/01/27 12:25:29;;;;;;;39.00;20.63;;;-0.80;98.80;;;;;;5054619;28;20120;-84
2023/01/27 12:28:02;;;;;;;39.53;23.83;;;-0.80;98.80;;;;;;5055676;28;20029;-84
2023/01/27 12:30:38;;;;;;;46.15;25.02;;;-0.80;99.20;;;;;;5054119;28;20032;-85
2023/01/27 12:33:22;;;;;;;47.80;28.98;;;-0.90;99.90;;;;;;5055370;28;20017;-83
2023/01/27 12:35:49;;;;;;;64.45;36.40;;;-0.90;99.40;;;;;;5055461;28;20056;-84
2023/01/27 12:38:18;;;;;;;135.07;61.20;;;-0.90;99.50;;;;;;5053920;28;20013;-84
2023/01/27 12:40:46;;;;;;;148.75;61.60;;;-0.90;99.90;;;;;;5053674;28;20025;-84
2023/01/27 12:43:18;;;;;;;91.68;48.05;;;-0.90;99.90;;;;;;5055185;28;20044;-84
2023/01/27 12:46:00;;;;;;;112.60;57.88;;;-0.90;99.90;;;;;;5053896;28;20025;-84
2023/01/27 12:48:30;;;;;;;74.30;32.70;;;-1.00;99.90;;;;;;5055162;28;20029;-84
2023/01/27 12:51:05;;;;;;;133.70;51.03;;;-1.00;99.70;;;;;;5053659;28;20021;-84
2023/01/27 12:53:30;;;;;;;97.72;34.25;;;-0.90;99.90;;;;;;5054867;28;20021;-84
2023/01/27 12:56:03;;;;;;;59.58;25.40;;;-1.00;99.90;;;;;;5053776;28;20390;-83
2023/01/27 12:58:44;;;;;;;75.30;33.33;;;-0.90;99.90;;;;;;5053551;28;20037;-84
2023/01/27 13:01:32;;;;;;;54.97;24.35;;;-0.90;99.90;;;;;;5054725;28;20049;-84
2023/01/27 13:04:04;;;;;;;38.47;21.05;;;-0.90;99.90;;;;;;5053532;28;20086;-84
2023/01/27 13:06:48;;;;;;;29.60;15.48;;;-1.00;99.90;;;;;;5054740;28;20029;-83